createdAt,value
2022-10-26T00:01:45.248Z,15.66
2022-10-26T00:04:11.887Z,15.55
2022-10-26T00:06:38.499Z,15.52
2022-10-26T00:09:05.040Z,15.58
2022-10-26T00:11:31.604Z,15.51
2022-10-26T00:13:58.150Z,15.55
2022-10-26T00:16:26.413Z,15.56
2022-10-26T00:18:53.088Z,15.59
2022-10-26T00:21:19.743Z,15.63
2022-10-26T00:23:46.353Z,15.67
2022-10-26T00:26:12.984Z,15.68
2022-10-26T00:28:39.601Z,15.68
2022-10-26T00:31:07.474Z,15.67
2022-10-26T00:33:34.146Z,15.66
2022-10-26T00:36:00.809Z,15.59
2022-10-26T00:38:27.313Z,15.52
2022-10-26T00:40:53.913Z,15.49
2022-10-26T00:43:20.460Z,15.54
2022-10-26T00:45:47.303Z,15.50
2022-10-26T00:48:23.183Z,15.26
2022-10-26T00:50:49.798Z,15.20
2022-10-26T00:53:16.328Z,15.33
2022-10-26T00:55:44.907Z,15.43
2022-10-26T00:58:11.476Z,15.51
2022-10-26T01:00:38.018Z,15.54
2022-10-26T01:03:05.893Z,15.57
2022-10-26T01:05:32.573Z,15.59
2022-10-26T01:07:59.070Z,15.60
2022-10-26T01:10:26.142Z,15.61
2022-10-26T01:12:52.920Z,15.60
2022-10-26T01:15:20.284Z,15.59
2022-10-26T01:17:47.078Z,15.56
2022-10-26T01:20:32.387Z,15.53
2022-10-26T01:23:07.879Z,15.54
2022-10-26T01:25:43.520Z,15.51
2022-10-26T01:28:16.372Z,15.48
2022-10-26T01:30:44.368Z,15.44
2022-10-26T01:33:11.063Z,15.48
2022-10-26T01:35:49.937Z,15.57
2022-10-26T01:38:20.771Z,15.69
2022-10-26T01:40:50.131Z,15.79
2022-10-26T01:43:16.711Z,15.90
2022-10-26T01:45:44.042Z,16.02
2022-10-26T01:48:10.934Z,16.07
2022-10-26T01:50:37.510Z,16.14
2022-10-26T01:53:04.007Z,16.19
2022-10-26T01:55:33.431Z,16.23
2022-10-26T01:58:01.540Z,16.30
2022-10-26T02:00:28.327Z,16.38
2022-10-26T02:02:58.234Z,16.44
2022-10-26T02:05:43.636Z,16.47
2022-10-26T02:08:21.852Z,16.49
2022-10-26T02:10:48.510Z,16.53
2022-10-26T02:13:50.434Z,16.57
2022-10-26T02:16:28.090Z,16.62
2022-10-26T02:19:03.564Z,16.65
2022-10-26T02:21:33.986Z,16.67
2022-10-26T02:24:00.722Z,16.68
2022-10-26T02:26:28.722Z,16.71
2022-10-26T02:28:56.302Z,16.73
2022-10-26T02:31:23.478Z,16.75
2022-10-26T02:33:50.383Z,16.73
2022-10-26T02:36:18.022Z,16.76
2022-10-26T02:38:44.883Z,16.79
2022-10-26T02:41:11.375Z,16.80
2022-10-26T02:43:39.192Z,16.74
2022-10-26T02:46:07.668Z,16.66
2022-10-26T02:48:34.358Z,16.64
2022-10-26T02:51:02.543Z,16.70
2022-10-26T02:53:35.990Z,16.73
2022-10-26T02:56:04.443Z,16.75
2022-10-26T02:58:31.573Z,16.76
2022-10-26T03:00:58.213Z,16.77
2022-10-26T03:03:24.811Z,16.80
2022-10-26T03:05:51.428Z,16.80
2022-10-26T03:08:18.068Z,16.76
2022-10-26T03:10:45.007Z,16.74
2022-10-26T03:13:12.078Z,16.74
2022-10-26T03:15:38.735Z,16.74
2022-10-26T03:18:05.547Z,16.76
2022-10-26T03:20:32.195Z,16.76
2022-10-26T03:22:58.813Z,16.80
2022-10-26T03:25:25.587Z,16.82
2022-10-26T03:27:59.004Z,16.84
2022-10-26T03:30:25.997Z,16.87
2022-10-26T03:32:52.566Z,16.87
2022-10-26T03:35:19.204Z,16.85
2022-10-26T03:37:45.919Z,16.87
2022-10-26T03:40:12.882Z,16.86
2022-10-26T03:42:39.719Z,16.87
2022-10-26T03:45:06.774Z,16.86
2022-10-26T03:47:33.296Z,16.88
2022-10-26T03:50:00.257Z,16.90
2022-10-26T03:52:26.977Z,16.92
2022-10-26T03:54:53.551Z,16.94
2022-10-26T03:57:20.102Z,16.95
2022-10-26T03:59:46.690Z,16.96
2022-10-26T04:02:15.247Z,16.94
2022-10-26T04:04:41.923Z,16.92
2022-10-26T04:07:08.492Z,16.89
2022-10-26T04:09:35.108Z,16.88
2022-10-26T04:12:01.659Z,16.87
2022-10-26T04:14:28.287Z,16.83
2022-10-26T04:16:54.811Z,16.82
2022-10-26T04:19:21.475Z,16.76
2022-10-26T04:21:47.968Z,16.69
2022-10-26T04:24:14.625Z,16.66
2022-10-26T04:26:41.220Z,16.68
2022-10-26T04:29:09.244Z,16.71
2022-10-26T04:31:35.783Z,16.69
2022-10-26T04:34:02.461Z,16.72
2022-10-26T04:36:30.025Z,16.74
2022-10-26T04:38:56.647Z,16.75
2022-10-26T04:41:23.233Z,16.79
2022-10-26T04:43:49.893Z,16.82
2022-10-26T04:46:16.876Z,16.82
2022-10-26T04:48:43.619Z,16.85
2022-10-26T04:51:10.186Z,16.86
2022-10-26T04:53:36.713Z,16.87
2022-10-26T04:56:03.361Z,16.88
2022-10-26T04:58:30.039Z,16.91
2022-10-26T05:00:56.661Z,16.95
2022-10-26T05:03:23.285Z,16.95
2022-10-26T05:05:49.862Z,16.97
2022-10-26T05:08:16.526Z,16.94
2022-10-26T05:10:43.155Z,16.92
2022-10-26T05:13:10.060Z,16.87
2022-10-26T05:15:36.583Z,16.83
2022-10-26T05:18:04.207Z,16.73
2022-10-26T05:20:32.487Z,16.69
2022-10-26T05:22:59.650Z,16.71
2022-10-26T05:25:26.258Z,16.70
2022-10-26T05:27:52.850Z,16.73
2022-10-26T05:30:19.537Z,16.81
2022-10-26T05:32:49.609Z,16.81
2022-10-26T05:35:16.313Z,16.74
2022-10-26T05:37:42.818Z,16.73
2022-10-26T05:40:10.222Z,16.77
2022-10-26T05:42:36.719Z,16.76
2022-10-26T05:45:03.401Z,16.74
2022-10-26T05:47:29.970Z,16.71
2022-10-26T05:49:56.505Z,16.73
2022-10-26T05:52:22.998Z,16.72
2022-10-26T05:54:49.638Z,16.80
2022-10-26T05:57:16.262Z,16.84
2022-10-26T05:59:42.941Z,16.84
2022-10-26T06:02:12.345Z,16.84
2022-10-26T06:04:41.456Z,16.85
2022-10-26T06:07:12.026Z,16.88
2022-10-26T06:09:39.465Z,16.90
2022-10-26T06:12:07.440Z,16.95
2022-10-26T06:14:34.878Z,16.97
2022-10-26T06:17:12.360Z,17.01
2022-10-26T06:19:57.344Z,17.02
2022-10-26T06:22:33.097Z,17.00
2022-10-26T06:25:05.802Z,17.05
2022-10-26T06:27:51.317Z,17.09
2022-10-26T06:30:18.217Z,17.06
2022-10-26T06:32:45.002Z,17.07
2022-10-26T06:35:21.159Z,17.10
2022-10-26T06:37:48.117Z,17.10
2022-10-26T06:40:15.096Z,17.10
2022-10-26T06:42:41.831Z,17.13
2022-10-26T06:45:11.657Z,17.13
2022-10-26T06:47:44.072Z,17.13
2022-10-26T06:50:10.640Z,17.16
2022-10-26T06:52:44.559Z,17.12
2022-10-26T06:55:15.375Z,17.10
2022-10-26T06:57:42.651Z,17.09
2022-10-26T07:00:19.888Z,17.10
2022-10-26T07:02:46.755Z,17.16
2022-10-26T07:05:13.499Z,17.19
2022-10-26T07:07:43.774Z,17.20
2022-10-26T07:10:10.981Z,17.20
2022-10-26T07:12:37.833Z,17.18
2022-10-26T07:15:04.891Z,17.22
2022-10-26T07:17:31.594Z,17.27
2022-10-26T07:19:58.195Z,17.29
2022-10-26T07:22:25.338Z,17.32
2022-10-26T07:24:52.287Z,17.34
2022-10-26T07:27:21.563Z,17.38
2022-10-26T07:29:48.138Z,17.39
2022-10-26T07:32:14.598Z,17.40
2022-10-26T07:34:41.364Z,17.42
2022-10-26T07:37:08.010Z,17.41
2022-10-26T07:39:34.545Z,17.40
2022-10-26T07:42:01.081Z,17.39
2022-10-26T07:44:27.703Z,17.36
2022-10-26T07:46:54.236Z,17.39
2022-10-26T07:49:23.740Z,17.38
2022-10-26T07:51:51.519Z,17.39
2022-10-26T07:54:17.985Z,17.44
2022-10-26T07:56:44.600Z,17.46
2022-10-26T07:59:11.693Z,17.44
2022-10-26T08:01:38.453Z,17.44
2022-10-26T08:04:05.211Z,17.41
2022-10-26T08:06:31.792Z,17.42
2022-10-26T08:08:58.303Z,17.43
2022-10-26T08:11:25.159Z,17.45
2022-10-26T08:13:53.265Z,17.46
2022-10-26T08:16:20.042Z,17.48
2022-10-26T08:18:47.949Z,17.51
2022-10-26T08:21:21.617Z,17.52
2022-10-26T08:23:57.057Z,17.47
2022-10-26T08:26:23.853Z,17.45
2022-10-26T08:28:50.623Z,17.42
2022-10-26T08:31:17.131Z,17.45
2022-10-26T08:33:45.018Z,17.49
2022-10-26T08:36:12.274Z,17.49
2022-10-26T08:38:38.872Z,17.54
2022-10-26T08:41:06.722Z,17.58
2022-10-26T08:43:43.000Z,17.57
2022-10-26T08:46:11.682Z,17.58
2022-10-26T08:48:45.445Z,17.59
2022-10-26T08:51:13.425Z,17.61
2022-10-26T08:53:42.991Z,17.65
2022-10-26T08:56:16.242Z,17.69
2022-10-26T08:58:51.927Z,17.69
2022-10-26T09:01:18.717Z,17.71
2022-10-26T09:03:45.270Z,17.74
2022-10-26T09:06:24.347Z,17.78
2022-10-26T09:08:59.828Z,17.82
2022-10-26T09:11:41.845Z,17.84
2022-10-26T09:14:11.311Z,17.85
2022-10-26T09:16:37.899Z,17.85
2022-10-26T09:19:19.859Z,17.89
2022-10-26T09:22:05.365Z,17.90
2022-10-26T09:24:32.727Z,17.93
2022-10-26T09:27:00.065Z,17.96
2022-10-26T09:29:28.075Z,18.00
2022-10-26T09:31:54.743Z,18.05
2022-10-26T09:34:27.299Z,18.13
2022-10-26T09:36:55.230Z,18.18
2022-10-26T09:39:27.226Z,18.23
2022-10-26T09:41:57.259Z,18.26
2022-10-26T09:44:46.122Z,18.27
2022-10-26T09:47:19.920Z,18.28
2022-10-26T09:49:56.426Z,18.31
2022-10-26T09:52:23.051Z,18.35
2022-10-26T09:54:49.627Z,18.38
2022-10-26T09:57:16.437Z,18.45
2022-10-26T09:59:42.973Z,18.49
2022-10-26T10:02:28.362Z,18.54
2022-10-26T10:04:54.974Z,18.54
2022-10-26T10:07:21.496Z,18.54
2022-10-26T10:09:59.162Z,18.55
2022-10-26T10:12:25.790Z,18.58
2022-10-26T10:14:56.603Z,18.63
2022-10-26T10:17:23.470Z,18.67
2022-10-26T10:19:50.057Z,18.68
2022-10-26T10:22:18.651Z,18.70
2022-10-26T10:25:01.419Z,18.71
2022-10-26T10:27:28.885Z,18.73
2022-10-26T10:29:59.773Z,18.74
2022-10-26T10:32:35.911Z,18.76
2022-10-26T10:35:22.501Z,18.82
2022-10-26T10:37:49.202Z,18.86
2022-10-26T10:40:22.806Z,18.84
2022-10-26T10:42:50.268Z,18.88
2022-10-26T10:45:19.991Z,18.90
2022-10-26T10:47:58.157Z,18.92
2022-10-26T10:50:24.734Z,18.96
2022-10-26T10:52:52.845Z,18.96
2022-10-26T10:55:20.362Z,18.99
2022-10-26T10:58:05.667Z,19.02
2022-10-26T11:00:34.427Z,19.06
2022-10-26T11:03:07.066Z,19.05
2022-10-26T11:05:37.465Z,19.07
2022-10-26T11:08:12.336Z,19.08
2022-10-26T11:10:47.493Z,19.13
2022-10-26T11:13:18.398Z,19.18
2022-10-26T11:15:45.465Z,19.18
2022-10-26T11:18:41.520Z,19.17
2022-10-26T11:21:20.113Z,19.22
2022-10-26T11:23:48.492Z,19.26
2022-10-26T11:26:20.364Z,19.26
2022-10-26T11:28:48.810Z,19.24
2022-10-26T11:31:20.504Z,19.27
2022-10-26T11:33:49.602Z,19.28
2022-10-26T11:36:19.769Z,19.34
2022-10-26T11:38:56.920Z,19.37
2022-10-26T11:41:30.132Z,19.43
2022-10-26T11:44:03.197Z,19.46
2022-10-26T11:46:34.704Z,19.48
2022-10-26T11:49:16.513Z,19.51
2022-10-26T11:51:52.023Z,19.53
2022-10-26T11:54:26.109Z,19.56
2022-10-26T11:56:53.445Z,19.57
2022-10-26T11:59:21.091Z,19.63
2022-10-26T12:01:48.405Z,19.66
2022-10-26T12:04:15.001Z,19.67
2022-10-26T12:06:41.676Z,19.69
2022-10-26T12:09:10.401Z,19.70
2022-10-26T12:11:37.093Z,19.74
2022-10-26T12:14:19.641Z,19.76
2022-10-26T12:16:49.440Z,19.78
2022-10-26T12:19:21.666Z,19.75
2022-10-26T12:21:49.441Z,19.76
2022-10-26T12:24:23.521Z,19.77
2022-10-26T12:26:59.741Z,19.79
2022-10-26T12:29:28.239Z,19.84
2022-10-26T12:31:54.862Z,19.87
2022-10-26T12:34:30.720Z,19.93
2022-10-26T12:36:57.333Z,19.97
2022-10-26T12:39:40.520Z,19.99
2022-10-26T12:42:10.236Z,20.02
2022-10-26T12:44:44.252Z,20.08
2022-10-26T12:47:11.196Z,20.10
2022-10-26T12:49:56.837Z,20.13
2022-10-26T12:52:26.729Z,20.11
2022-10-26T12:55:02.376Z,20.09
2022-10-26T12:57:31.471Z,20.08
2022-10-26T13:00:00.645Z,20.09
2022-10-26T13:02:36.697Z,20.11
2022-10-26T13:05:06.019Z,20.15
2022-10-26T13:07:37.973Z,20.13
2022-10-26T13:10:05.881Z,20.13
2022-10-26T13:12:36.989Z,20.17
2022-10-26T13:15:04.507Z,20.14
2022-10-26T13:17:31.937Z,20.10
2022-10-26T13:19:59.563Z,20.10
2022-10-26T13:22:26.433Z,20.11
2022-10-26T13:25:02.936Z,20.12
2022-10-26T13:27:50.131Z,20.15
2022-10-26T13:30:22.060Z,20.14
2022-10-26T13:32:49.747Z,20.19
2022-10-26T13:35:16.338Z,20.19
2022-10-26T13:37:47.466Z,20.22
2022-10-26T13:40:18.261Z,20.22
2022-10-26T13:42:45.420Z,20.24
2022-10-26T13:45:13.561Z,20.26
2022-10-26T13:47:51.595Z,20.25
2022-10-26T13:50:19.799Z,20.25
2022-10-26T13:52:47.815Z,20.25
2022-10-26T13:55:26.717Z,20.23
2022-10-26T13:58:12.176Z,20.25
2022-10-26T14:00:38.847Z,20.28
2022-10-26T14:03:16.800Z,20.30
2022-10-26T14:05:43.832Z,20.25
2022-10-26T14:08:11.900Z,20.23
2022-10-26T14:10:39.680Z,20.19
2022-10-26T14:13:09.982Z,20.21
2022-10-26T14:15:36.606Z,20.21
2022-10-26T14:18:03.822Z,20.21
2022-10-26T14:20:30.920Z,20.24
2022-10-26T14:22:57.559Z,20.22
2022-10-26T14:25:35.955Z,20.16
2022-10-26T14:28:23.115Z,20.14
2022-10-26T14:30:51.291Z,20.12
2022-10-26T14:33:19.554Z,20.11
2022-10-26T14:35:46.289Z,20.14
2022-10-26T14:38:20.368Z,20.11
2022-10-26T14:40:47.040Z,20.11
2022-10-26T14:43:16.592Z,20.06
2022-10-26T14:45:49.505Z,19.98
2022-10-26T14:48:30.095Z,19.94
2022-10-26T14:51:02.774Z,19.88
2022-10-26T14:53:33.276Z,19.88
2022-10-26T14:56:00.199Z,19.84
2022-10-26T15:01:17.981Z,19.71
2022-10-26T15:03:44.827Z,19.69
2022-10-26T15:06:29.915Z,19.67
2022-10-26T15:08:59.912Z,19.67
2022-10-26T15:11:27.108Z,19.65
2022-10-26T15:13:53.845Z,19.62
2022-10-26T15:16:21.921Z,19.63
2022-10-26T15:18:49.292Z,19.61
2022-10-26T15:21:30.557Z,19.59
2022-10-26T15:23:57.251Z,19.58
2022-10-26T15:26:24.575Z,19.56
2022-10-26T15:28:52.797Z,19.56
2022-10-26T15:31:19.343Z,19.53
2022-10-26T15:33:51.712Z,19.51
2022-10-26T15:36:24.617Z,19.48
2022-10-26T15:38:53.996Z,19.44
2022-10-26T15:41:38.865Z,19.38
2022-10-26T15:44:11.249Z,19.32
2022-10-26T15:46:41.038Z,19.31
2022-10-26T15:49:08.041Z,19.30
2022-10-26T15:51:34.699Z,19.26
2022-10-26T15:54:04.703Z,19.24
2022-10-26T15:56:31.468Z,19.20
2022-10-26T15:58:58.125Z,19.17
2022-10-26T16:01:25.675Z,19.12
2022-10-26T16:03:52.500Z,19.06
2022-10-26T16:06:24.790Z,19.03
2022-10-26T16:08:52.093Z,18.99
2022-10-26T16:11:18.648Z,18.96
2022-10-26T16:13:45.360Z,18.94
2022-10-26T16:16:16.121Z,18.89
2022-10-26T16:18:42.843Z,18.84
2022-10-26T16:21:11.773Z,18.79
2022-10-26T16:23:38.363Z,18.75
2022-10-26T16:26:05.073Z,18.71
2022-10-26T16:28:31.703Z,18.70
2022-10-26T16:31:05.114Z,18.68
2022-10-26T16:33:31.836Z,18.64
2022-10-26T16:35:59.211Z,18.61
2022-10-26T16:38:26.589Z,18.59
2022-10-26T16:41:02.486Z,18.53
2022-10-26T16:43:30.707Z,18.45
2022-10-26T16:45:57.253Z,18.39
2022-10-26T16:48:23.911Z,18.38
2022-10-26T16:50:50.579Z,18.33
2022-10-26T16:53:17.271Z,18.28
2022-10-26T16:55:44.294Z,18.25
2022-10-26T16:58:11.006Z,18.23
2022-10-26T17:00:37.734Z,18.18
2022-10-26T17:03:04.438Z,18.14
2022-10-26T17:05:31.053Z,18.09
2022-10-26T17:07:57.685Z,18.09
2022-10-26T17:10:25.796Z,18.08
2022-10-26T17:12:52.738Z,18.08
2022-10-26T17:15:20.213Z,18.06
2022-10-26T17:17:47.762Z,18.04
2022-10-26T17:20:14.532Z,18.03
2022-10-26T17:22:41.213Z,17.98
2022-10-26T17:25:07.961Z,17.96
2022-10-26T17:27:34.601Z,17.95
2022-10-26T17:30:01.183Z,17.92
2022-10-26T17:32:27.817Z,17.90
2022-10-26T17:34:54.465Z,17.89
2022-10-26T17:37:21.131Z,17.91
2022-10-26T17:39:47.742Z,17.88
2022-10-26T17:42:14.377Z,17.85
2022-10-26T17:44:40.880Z,17.79
2022-10-26T17:47:08.851Z,17.71
2022-10-26T17:49:36.423Z,17.69
2022-10-26T17:52:03.659Z,17.65
2022-10-26T17:54:30.215Z,17.62
2022-10-26T17:56:56.941Z,17.61
2022-10-26T17:59:23.471Z,17.59
2022-10-26T18:01:50.527Z,17.57
2022-10-26T18:04:17.257Z,17.55
2022-10-26T18:06:43.880Z,17.52
2022-10-26T18:09:10.465Z,17.49
2022-10-26T18:11:37.091Z,17.51
2022-10-26T18:14:03.681Z,17.49
2022-10-26T18:16:31.210Z,17.38
2022-10-26T18:19:01.868Z,17.35
2022-10-26T18:21:29.568Z,17.31
2022-10-26T18:23:56.171Z,17.31
2022-10-26T18:26:23.663Z,17.28
2022-10-26T18:28:50.240Z,17.24
2022-10-26T18:31:19.868Z,17.21
2022-10-26T18:33:46.561Z,17.16
2022-10-26T18:36:13.999Z,17.14
2022-10-26T18:38:40.674Z,17.14
2022-10-26T18:41:08.007Z,17.07
2022-10-26T18:43:34.677Z,16.98
2022-10-26T18:46:05.583Z,16.98
2022-10-26T18:48:32.381Z,16.96
2022-10-26T18:51:05.872Z,16.92
2022-10-26T18:53:33.395Z,16.89
2022-10-26T18:56:00.823Z,16.87
2022-10-26T18:58:31.384Z,16.86
2022-10-26T19:01:24.293Z,16.86
2022-10-26T19:03:54.736Z,16.75
2022-10-26T19:06:25.205Z,16.68
2022-10-26T19:08:51.904Z,16.64
2022-10-26T19:11:19.516Z,16.63
2022-10-26T19:13:46.190Z,16.64
2022-10-26T19:16:33.596Z,16.66
2022-10-26T19:19:06.013Z,16.65
2022-10-26T19:21:32.836Z,16.60
2022-10-26T19:23:59.876Z,16.55
2022-10-26T19:26:34.228Z,16.54
2022-10-26T19:29:06.157Z,16.49
2022-10-26T19:31:32.944Z,16.43
2022-10-26T19:33:59.906Z,16.43
2022-10-26T19:36:27.351Z,16.39
2022-10-26T19:38:54.315Z,16.36
2022-10-26T19:41:23.498Z,16.34
2022-10-26T19:43:50.310Z,16.30
2022-10-26T19:46:18.073Z,16.28
2022-10-26T19:48:48.204Z,16.26
2022-10-26T19:51:14.941Z,16.23
2022-10-26T19:53:41.492Z,16.18
2022-10-26T19:56:12.355Z,16.16
2022-10-26T19:58:42.582Z,16.11
2022-10-26T20:01:09.771Z,16.08
2022-10-26T20:03:36.533Z,16.03
2022-10-26T20:06:08.548Z,15.98
2022-10-26T20:08:38.401Z,15.97
2022-10-26T20:11:05.473Z,15.92
2022-10-26T20:13:32.324Z,15.89
2022-10-26T20:15:59.017Z,15.86
2022-10-26T20:18:25.680Z,15.84
2022-10-26T20:20:52.337Z,15.86
2022-10-26T20:23:19.085Z,15.88
2022-10-26T20:25:49.416Z,15.92
2022-10-26T20:28:16.496Z,15.89
2022-10-26T20:30:43.615Z,15.92
2022-10-26T20:33:10.540Z,15.92
2022-10-26T20:35:37.235Z,15.97
2022-10-26T20:38:04.720Z,15.98
2022-10-26T20:40:31.600Z,15.88
2022-10-26T20:42:58.502Z,15.83
2022-10-26T20:45:26.232Z,15.79
2022-10-26T20:47:54.656Z,15.75
2022-10-26T20:50:22.005Z,15.76
2022-10-26T20:52:55.221Z,15.75
2022-10-26T20:55:27.969Z,15.74
2022-10-26T20:57:56.461Z,15.74
2022-10-26T21:00:23.065Z,15.71
2022-10-26T21:02:50.052Z,15.70
2022-10-26T21:05:18.380Z,15.73
2022-10-26T21:07:44.997Z,15.77
2022-10-26T21:10:11.681Z,15.79
2022-10-26T21:12:38.692Z,15.80
2022-10-26T21:15:05.598Z,15.81
2022-10-26T21:17:34.478Z,15.82
2022-10-26T21:20:01.023Z,15.85
2022-10-26T21:22:27.651Z,15.87
2022-10-26T21:24:54.213Z,15.88
2022-10-26T21:27:20.771Z,15.87
2022-10-26T21:29:47.314Z,15.86
2022-10-26T21:32:13.976Z,15.84
2022-10-26T21:34:40.585Z,15.84
2022-10-26T21:37:07.197Z,15.82
2022-10-26T21:39:33.836Z,15.82
2022-10-26T21:42:00.580Z,15.82
2022-10-26T21:44:40.370Z,15.83
2022-10-26T21:47:07.449Z,15.81
2022-10-26T21:49:34.048Z,15.74
2022-10-26T21:52:00.793Z,15.68
2022-10-26T21:54:27.407Z,15.63
2022-10-26T21:56:53.997Z,15.59
2022-10-26T21:59:20.561Z,15.53
2022-10-26T22:01:47.447Z,15.46
2022-10-26T22:04:14.115Z,15.41
2022-10-26T22:06:40.806Z,15.40
2022-10-26T22:09:07.421Z,15.38
2022-10-26T22:11:34.118Z,15.38
2022-10-26T22:14:00.626Z,15.37
2022-10-26T22:16:28.228Z,15.40
2022-10-26T22:18:55.445Z,15.43
2022-10-26T22:21:23.522Z,15.41
2022-10-26T22:23:50.159Z,15.38
2022-10-26T22:26:20.153Z,15.33
2022-10-26T22:28:47.518Z,15.29
2022-10-26T22:31:15.394Z,15.25
2022-10-26T22:33:42.230Z,15.21
2022-10-26T22:36:09.938Z,15.20
2022-10-26T22:38:36.577Z,15.17
2022-10-26T22:41:03.108Z,15.14
2022-10-26T22:43:29.861Z,15.15
2022-10-26T22:45:59.990Z,15.15
2022-10-26T22:48:26.666Z,15.15
2022-10-26T22:50:53.163Z,15.14
2022-10-26T22:53:19.787Z,15.13
2022-10-26T22:55:46.341Z,15.10
2022-10-26T22:58:13.082Z,15.09
2022-10-26T23:00:39.698Z,15.04
2022-10-26T23:03:06.359Z,15.03
2022-10-26T23:05:33.039Z,14.99
2022-10-26T23:07:59.639Z,15.00
2022-10-26T23:10:26.115Z,15.01
2022-10-26T23:12:53.022Z,14.99
2022-10-26T23:15:19.616Z,14.98
2022-10-26T23:17:46.154Z,14.96
2022-10-26T23:20:12.654Z,14.92
2022-10-26T23:22:39.311Z,14.92
2022-10-26T23:25:06.066Z,14.92
2022-10-26T23:27:32.751Z,14.90
2022-10-26T23:29:59.356Z,14.89
2022-10-26T23:32:25.950Z,14.91
2022-10-26T23:34:52.434Z,14.92
2022-10-26T23:37:19.637Z,14.91
2022-10-26T23:39:46.141Z,14.88
2022-10-26T23:42:12.755Z,14.86
2022-10-26T23:44:39.262Z,14.83
2022-10-26T23:47:05.980Z,14.81
2022-10-26T23:49:32.507Z,14.82
2022-10-26T23:51:59.099Z,14.86
2022-10-26T23:54:25.598Z,14.89
2022-10-26T23:56:52.179Z,14.90
2022-10-26T23:59:19.707Z,14.87
